Time;durP1;ratioP1;P1;durP2;ratioP2;P2;SDS_P1;SDS_P2;PMS_P1;PMS_P2;Temp;Humidity;BMP_temperature;BMP_pressure;BME280_temperature;BME280_humidity;BME280_pressure;Samples;Min_cycle;Max_cycle;Signal;HPM_P1;HPM_P2
2023/03/03 00:02:22;;;;;;;8.77;2.47;;;5.20;99.90;;;;;;4975544;28;20479;-74
2023/03/03 00:04:48;;;;;;;5.47;1.80;;;5.20;99.90;;;;;;4972628;28;20027;-74
2023/03/03 00:07:20;;;;;;;7.20;2.28;;;4.90;99.90;;;;;;4977282;28;20030;-74
2023/03/03 00:09:46;;;;;;;4.03;1.73;;;5.00;99.90;;;;;;4981794;28;20111;-74
2023/03/03 00:12:23;;;;;;;2.45;1.20;;;5.10;99.90;;;;;;4970674;28;20031;-74
2023/03/03 00:14:49;;;;;;;4.63;1.92;;;5.10;99.90;;;;;;4969837;28;20042;-74
2023/03/03 00:17:27;;;;;;;3.17;1.55;;;5.10;99.90;;;;;;4984106;28;20030;-74
2023/03/03 00:19:54;;;;;;;3.58;1.45;;;5.00;99.90;;;;;;4983383;28;20492;-74
2023/03/03 00:22:34;;;;;;;4.85;1.48;;;4.90;99.90;;;;;;4980131;28;20093;-74
2023/03/03 00:25:18;;;;;;;4.45;1.35;;;4.90;99.90;;;;;;4981162;28;20190;-74
2023/03/03 00:27:44;;;;;;;5.45;1.73;;;4.90;99.90;;;;;;4972412;28;20057;-74
2023/03/03 00:30:24;;;;;;;5.68;2.38;;;4.90;99.90;;;;;;4971696;28;20054;-74
2023/03/03 00:32:51;;;;;;;4.70;1.75;;;4.80;99.90;;;;;;4979534;28;20477;-74
2023/03/03 00:35:29;;;;;;;4.72;1.60;;;4.80;99.90;;;;;;4979787;28;20035;-74
2023/03/03 00:38:18;;;;;;;8.65;4.03;;;4.80;99.90;;;;;;4977997;28;20030;-74
2023/03/03 00:40:45;;;;;;;7.63;3.13;;;5.00;99.90;;;;;;4978094;28;20477;-74
2023/03/03 00:43:21;;;;;;;6.78;2.25;;;5.00;99.90;;;;;;4971507;28;20031;-74
2023/03/03 00:45:51;;;;;;;7.03;2.30;;;4.90;99.90;;;;;;4979616;28;20077;-74
2023/03/03 00:48:25;;;;;;;4.93;2.15;;;4.80;99.90;;;;;;4972182;28;20037;-74
2023/03/03 00:51:05;;;;;;;5.38;2.92;;;4.70;99.90;;;;;;4983001;28;20445;-74
2023/03/03 00:53:31;;;;;;;7.70;2.75;;;4.90;99.90;;;;;;4977363;28;20191;-74
2023/03/03 00:55:57;;;;;;;7.10;2.75;;;5.10;99.90;;;;;;4971151;28;20137;-74
2023/03/03 00:58:23;;;;;;;8.10;3.08;;;5.20;99.90;;;;;;4980507;28;20050;-74
2023/03/03 01:00:51;;;;;;;7.32;3.08;;;5.10;99.90;;;;;;4978512;28;20488;-74
2023/03/03 01:03:23;;;;;;;5.07;2.30;;;4.70;99.90;;;;;;4987346;28;20580;-74
2023/03/03 01:05:50;;;;;;;5.15;2.13;;;4.50;99.90;;;;;;4980605;28;20073;-74
2023/03/03 01:08:16;;;;;;;4.43;2.17;;;4.40;99.90;;;;;;4977035;28;20027;-74
2023/03/03 01:10:49;;;;;;;5.70;1.80;;;4.50;99.90;;;;;;4982620;28;20039;-74
2023/03/03 01:13:15;;;;;;;4.13;2.10;;;4.40;99.90;;;;;;4980317;28;20022;-74
2023/03/03 01:15:41;;;;;;;5.47;2.17;;;4.30;99.90;;;;;;4983096;28;20043;-74
2023/03/03 01:18:10;;;;;;;7.65;2.53;;;4.30;99.90;;;;;;4977071;28;21195;-74
2023/03/03 01:20:36;;;;;;;6.28;2.80;;;4.40;99.90;;;;;;4977134;28;20976;-74
2023/03/03 01:23:02;;;;;;;5.35;2.75;;;4.50;99.90;;;;;;4978922;28;20041;-74
2023/03/03 01:25:28;;;;;;;6.03;2.45;;;4.50;99.90;;;;;;4978703;28;20055;-74
2023/03/03 01:27:54;;;;;;;5.63;2.90;;;4.40;99.90;;;;;;4978280;28;20027;-74
2023/03/03 01:30:19;;;;;;;5.18;2.92;;;4.30;99.90;;;;;;4971793;28;20494;-74
2023/03/03 01:32:45;;;;;;;5.88;2.63;;;4.40;99.90;;;;;;4981741;28;20038;-74
2023/03/03 01:35:11;;;;;;;7.35;3.22;;;4.30;99.90;;;;;;4987108;28;20030;-74
2023/03/03 01:37:37;;;;;;;6.90;2.90;;;4.30;99.90;;;;;;4972636;28;20525;-74
2023/03/03 01:40:05;;;;;;;11.77;3.55;;;4.20;99.90;;;;;;4971142;28;20035;-74
2023/03/03 01:42:30;;;;;;;7.57;2.90;;;4.30;99.90;;;;;;4978033;28;21265;-74
2023/03/03 01:45:24;;;;;;;5.97;2.90;;;4.40;99.90;;;;;;4973173;28;20031;-74
2023/03/03 01:48:06;;;;;;;6.28;2.75;;;4.30;99.90;;;;;;4979331;28;20062;-74
2023/03/03 01:50:54;;;;;;;6.07;2.58;;;4.20;99.90;;;;;;4984014;28;20065;-74
2023/03/03 01:53:51;;;;;;;10.20;2.83;;;4.20;99.90;;;;;;4977994;28;20062;-74
2023/03/03 01:56:17;;;;;;;5.60;3.17;;;4.10;99.90;;;;;;4972509;28;20035;-74
2023/03/03 01:59:23;;;;;;;9.90;3.78;;;4.10;99.90;;;;;;4982318;28;20385;-74
2023/03/03 02:01:49;;;;;;;8.10;3.42;;;4.10;99.90;;;;;;4986766;28;20124;-74
2023/03/03 02:04:16;;;;;;;9.70;3.40;;;4.20;99.90;;;;;;4983818;28;20089;-73
2023/03/03 02:06:53;;;;;;;10.68;5.45;;;4.40;99.90;;;;;;4983924;28;20061;-74
2023/03/03 02:10:09;;;;;;;14.35;6.95;;;4.60;99.90;;;;;;4985993;28;20026;-74
2023/03/03 02:12:41;;;;;;;8.60;4.80;;;4.60;99.90;;;;;;4959285;28;20129;-74
2023/03/03 02:15:19;;;;;;;8.48;3.72;;;4.60;99.90;;;;;;4958288;28;20552;-73
2023/03/03 02:17:47;;;;;;;7.85;4.43;;;4.30;99.90;;;;;;4975105;28;20035;-74
2023/03/03 02:20:36;;;;;;;8.85;4.43;;;4.50;99.90;;;;;;4973066;28;20038;-74
2023/03/03 02:23:19;;;;;;;6.90;3.78;;;4.50;99.90;;;;;;4967545;28;20046;-74
2023/03/03 02:26:00;;;;;;;8.35;4.55;;;4.40;99.90;;;;;;4978471;28;20027;-73
2023/03/03 02:28:28;;;;;;;9.45;4.03;;;4.40;99.90;;;;;;4974406;28;20041;-74
2023/03/03 02:30:56;;;;;;;6.55;3.60;;;4.30;99.90;;;;;;4980866;28;20117;-74
2023/03/03 02:33:22;;;;;;;12.25;3.80;;;4.10;99.90;;;;;;4983369;28;20034;-74
2023/03/03 02:35:48;;;;;;;8.55;4.22;;;4.20;99.90;;;;;;4981846;28;20038;-74
2023/03/03 02:38:24;;;;;;;9.65;3.53;;;4.40;99.90;;;;;;4977618;28;20046;-74
2023/03/03 02:41:11;;;;;;;8.73;3.95;;;4.20;99.90;;;;;;4983816;28;20076;-74
2023/03/03 02:43:56;;;;;;;7.82;3.70;;;4.30;99.90;;;;;;4977091;28;20035;-74
2023/03/03 02:46:22;;;;;;;;;;;4.30;99.90;;;;;;4977613;28;20027;-76
2023/03/03 02:48:47;;;;;;;7.65;4.28;;;4.20;99.90;;;;;;4988372;28;19909;-76
2023/03/03 02:51:13;;;;;;;7.43;3.75;;;4.20;99.90;;;;;;4978002;28;20533;-76
2023/03/03 02:53:39;;;;;;;8.38;4.22;;;4.10;99.90;;;;;;4981267;28;20033;-76
2023/03/03 02:56:06;;;;;;;9.38;4.60;;;3.90;99.90;;;;;;4984143;28;20066;-76
2023/03/03 02:58:31;;;;;;;12.05;4.80;;;4.30;99.90;;;;;;4978548;28;20074;-76
2023/03/03 03:00:57;;;;;;;8.05;4.10;;;4.20;99.90;;;;;;4984554;28;20459;-74
2023/03/03 03:03:23;;;;;;;10.68;4.72;;;4.10;99.90;;;;;;4980328;28;20031;-74
2023/03/03 03:05:48;;;;;;;12.30;5.85;;;4.30;99.90;;;;;;4976592;28;20109;-74
2023/03/03 03:08:14;;;;;;;9.93;5.20;;;4.50;99.90;;;;;;4968886;28;20031;-73
2023/03/03 03:10:40;;;;;;;8.88;4.97;;;4.50;99.90;;;;;;4977882;28;20403;-73
2023/03/03 03:13:05;;;;;;;9.45;3.47;;;4.60;99.90;;;;;;4972102;28;20447;-74
2023/03/03 03:15:31;;;;;;;7.68;4.32;;;4.20;99.90;;;;;;4986407;28;20052;-74
2023/03/03 03:17:57;;;;;;;8.18;4.00;;;4.00;99.90;;;;;;4984069;28;20080;-73
2023/03/03 03:20:22;;;;;;;10.45;4.03;;;3.90;99.90;;;;;;4989886;28;20030;-74
2023/03/03 03:22:48;;;;;;;12.20;5.53;;;4.00;99.90;;;;;;4983792;28;20026;-74
2023/03/03 03:25:14;;;;;;;12.98;5.63;;;4.20;99.90;;;;;;4981063;28;20505;-74
2023/03/03 03:27:39;;;;;;;11.43;5.65;;;4.30;99.90;;;;;;4980198;28;20033;-74
2023/03/03 03:30:05;;;;;;;9.80;5.50;;;4.40;99.90;;;;;;4973997;28;20035;-74
2023/03/03 03:32:31;;;;;;;8.32;4.63;;;4.20;99.90;;;;;;4978424;28;20030;-74
2023/03/03 03:34:57;;;;;;;11.23;4.45;;;4.30;99.90;;;;;;4987058;28;20088;-74
2023/03/03 03:37:22;;;;;;;8.15;4.07;;;4.20;99.90;;;;;;4982587;28;20056;-74
2023/03/03 03:39:48;;;;;;;9.00;4.57;;;4.10;99.90;;;;;;4971364;28;20039;-73
2023/03/03 03:42:13;;;;;;;7.93;3.92;;;4.10;99.90;;;;;;4978458;28;20037;-74
2023/03/03 03:44:39;;;;;;;9.30;3.22;;;4.10;99.90;;;;;;4975423;28;20026;-73
2023/03/03 03:47:05;;;;;;;7.30;4.07;;;4.00;99.90;;;;;;4984264;28;20041;-74
2023/03/03 03:49:30;;;;;;;6.70;3.67;;;3.90;99.90;;;;;;4985050;28;20388;-74
2023/03/03 03:51:56;;;;;;;6.93;3.55;;;3.80;99.90;;;;;;4982501;28;20031;-74
2023/03/03 03:54:22;;;;;;;11.95;3.90;;;3.90;99.90;;;;;;4972128;28;20035;-74
2023/03/03 03:56:47;;;;;;;8.50;4.22;;;4.00;99.90;;;;;;4985020;28;20495;-74
2023/03/03 03:59:13;;;;;;;7.25;4.00;;;4.00;99.90;;;;;;4973045;28;20054;-74
2023/03/03 04:01:39;;;;;;;11.30;4.03;;;4.10;99.90;;;;;;4982104;28;20030;-72
2023/03/03 04:04:04;;;;;;;9.45;3.97;;;3.90;99.90;;;;;;4981744;28;20033;-72
2023/03/03 04:06:30;;;;;;;7.97;3.92;;;3.90;99.90;;;;;;4974033;28;20042;-72
2023/03/03 04:08:56;;;;;;;9.18;4.20;;;3.90;99.90;;;;;;4979590;28;20525;-73
2023/03/03 04:11:22;;;;;;;7.22;3.83;;;3.80;99.90;;;;;;4976255;28;20125;-72
2023/03/03 04:13:48;;;;;;;9.20;4.07;;;3.70;99.90;;;;;;4977036;28;20493;-73
2023/03/03 04:16:13;;;;;;;10.40;4.07;;;3.80;99.90;;;;;;4972315;28;20030;-73
2023/03/03 04:18:41;;;;;;;8.18;3.90;;;3.90;99.90;;;;;;4967005;28;20033;-73
2023/03/03 04:21:11;;;;;;;9.07;3.22;;;3.90;99.90;;;;;;4979575;28;20022;-73
2023/03/03 04:23:37;;;;;;;11.85;4.55;;;4.00;99.90;;;;;;4976776;28;20026;-73
2023/03/03 04:26:03;;;;;;;6.15;3.72;;;4.00;99.90;;;;;;4971705;28;20027;-73
2023/03/03 04:28:28;;;;;;;17.73;4.18;;;4.00;99.90;;;;;;4973972;28;20030;-73
2023/03/03 04:30:54;;;;;;;7.38;3.45;;;4.00;99.90;;;;;;4972319;28;20069;-73
2023/03/03 04:33:20;;;;;;;8.60;3.55;;;4.10;99.90;;;;;;4982943;28;20031;-73
2023/03/03 04:35:45;;;;;;;8.02;3.80;;;4.00;99.90;;;;;;4977614;28;20338;-73
2023/03/03 04:38:11;;;;;;;6.15;3.45;;;4.00;99.90;;;;;;4971220;28;20079;-73
2023/03/03 04:40:39;;;;;;;6.43;3.60;;;3.80;99.90;;;;;;4972271;28;20023;-72
2023/03/03 04:43:05;;;;;;;6.78;3.40;;;3.90;99.90;;;;;;4969901;28;20126;-72
2023/03/03 04:45:31;;;;;;;8.43;3.83;;;3.90;99.90;;;;;;4967819;28;20113;-73
2023/03/03 04:47:56;;;;;;;8.85;4.35;;;3.90;99.90;;;;;;4966935;28;20616;-72
2023/03/03 04:50:22;;;;;;;9.23;4.10;;;3.80;99.90;;;;;;4972480;28;20037;-73
2023/03/03 04:52:48;;;;;;;5.72;3.28;;;3.80;99.90;;;;;;4979114;28;20041;-72
2023/03/03 04:55:15;;;;;;;8.20;3.92;;;3.80;99.90;;;;;;4974176;28;20044;-74
2023/03/03 04:57:41;;;;;;;9.82;4.20;;;3.70;99.90;;;;;;4973685;28;20058;-73
2023/03/03 05:00:08;;;;;;;7.85;3.30;;;3.70;99.90;;;;;;4977873;28;20066;-73
2023/03/03 05:02:33;;;;;;;8.05;3.92;;;3.70;99.90;;;;;;4969278;28;20047;-73
2023/03/03 05:04:59;;;;;;;6.53;3.28;;;3.80;99.90;;;;;;4977273;28;20080;-75
2023/03/03 05:07:25;;;;;;;11.02;3.97;;;3.70;99.90;;;;;;4975150;28;20031;-75
2023/03/03 05:09:50;;;;;;;6.80;3.20;;;3.60;99.90;;;;;;4982614;28;20027;-74
2023/03/03 05:12:16;;;;;;;10.38;3.72;;;3.50;99.90;;;;;;4977454;28;20038;-75
2023/03/03 05:14:42;;;;;;;6.80;3.13;;;3.60;99.90;;;;;;4973613;28;20609;-77
2023/03/03 05:17:08;;;;;;;6.20;3.03;;;3.60;99.90;;;;;;4964741;28;20046;-75
2023/03/03 05:19:34;;;;;;;10.32;3.78;;;3.60;99.90;;;;;;4973849;28;20070;-75
2023/03/03 05:22:00;;;;;;;5.72;3.17;;;3.50;99.90;;;;;;4973435;28;20038;-75
2023/03/03 05:24:26;;;;;;;7.20;2.97;;;3.60;99.90;;;;;;4976235;28;20038;-75
2023/03/03 05:26:52;;;;;;;9.32;3.95;;;3.80;99.90;;;;;;4969575;28;20026;-75
2023/03/03 05:29:19;;;;;;;7.65;3.90;;;4.00;99.90;;;;;;4974347;28;20032;-75
2023/03/03 05:31:44;;;;;;;6.90;3.78;;;4.00;99.90;;;;;;4975305;28;20030;-75
2023/03/03 05:34:10;;;;;;;9.50;3.65;;;3.80;99.90;;;;;;4971913;28;20026;-75
2023/03/03 05:36:35;;;;;;;9.05;3.47;;;3.60;99.90;;;;;;4977079;28;20496;-75
2023/03/03 05:39:01;;;;;;;9.82;4.53;;;3.70;99.90;;;;;;4974236;28;20039;-75
2023/03/03 05:41:27;;;;;;;7.97;2.83;;;3.50;99.90;;;;;;4970894;28;20080;-75
2023/03/03 05:43:53;;;;;;;6.18;3.03;;;3.50;99.90;;;;;;4968356;28;20027;-75
2023/03/03 05:46:18;;;;;;;7.35;3.72;;;3.40;99.90;;;;;;4974564;28;20041;-75
2023/03/03 05:48:44;;;;;;;10.40;3.38;;;3.40;99.90;;;;;;4977522;28;20034;-75
2023/03/03 05:51:10;;;;;;;6.30;3.28;;;3.60;99.90;;;;;;4978470;28;20031;-75
2023/03/03 05:53:36;;;;;;;8.30;3.40;;;3.60;99.90;;;;;;4971456;28;20023;-75
2023/03/03 05:56:01;;;;;;;5.70;3.38;;;3.60;99.90;;;;;;4980105;28;20031;-75
2023/03/03 05:58:27;;;;;;;6.78;3.25;;;3.60;99.90;;;;;;4974422;28;20088;-75
2023/03/03 06:00:53;;;;;;;7.93;3.20;;;3.50;99.90;;;;;;4972959;28;20031;-75
2023/03/03 06:03:19;;;;;;;9.00;3.40;;;3.50;99.90;;;;;;4981282;28;20019;-75
2023/03/03 06:05:44;;;;;;;10.63;3.92;;;3.50;99.90;;;;;;4976172;28;20061;-75
2023/03/03 06:08:10;;;;;;;7.47;2.85;;;3.60;99.90;;;;;;4966909;28;20042;-75
2023/03/03 06:10:36;;;;;;;7.15;4.00;;;3.50;99.90;;;;;;4969944;28;20080;-75
2023/03/03 06:13:02;;;;;;;15.07;5.75;;;3.50;99.90;;;;;;4967377;28;20058;-75
2023/03/03 06:15:27;;;;;;;8.52;3.67;;;3.50;99.90;;;;;;4967911;28;20045;-75
2023/03/03 06:17:53;;;;;;;10.07;3.92;;;3.60;99.90;;;;;;4983719;28;20034;-75
2023/03/03 06:20:19;;;;;;;6.68;3.10;;;3.70;99.90;;;;;;4972413;28;20616;-75
2023/03/03 06:22:44;;;;;;;8.93;3.60;;;3.70;99.90;;;;;;4973072;28;20036;-75
2023/03/03 06:25:10;;;;;;;11.38;6.65;;;3.80;99.90;;;;;;4972348;28;20034;-76
2023/03/03 06:27:35;;;;;;;7.97;3.55;;;4.00;99.90;;;;;;4974020;28;20030;-75
2023/03/03 06:30:02;;;;;;;9.90;4.00;;;4.00;99.90;;;;;;4968874;28;20112;-78
2023/03/03 06:32:28;;;;;;;11.75;3.58;;;4.10;99.90;;;;;;4972109;28;20037;-75
2023/03/03 06:34:53;;;;;;;8.10;3.17;;;4.10;99.90;;;;;;4978717;28;20035;-77
2023/03/03 06:37:19;;;;;;;7.63;3.80;;;4.10;99.90;;;;;;4966891;28;20050;-76
2023/03/03 06:39:44;;;;;;;8.75;3.75;;;4.10;99.90;;;;;;4984291;28;20030;-76
2023/03/03 06:42:10;;;;;;;9.75;4.63;;;4.10;99.90;;;;;;4967816;28;20027;-76
2023/03/03 06:44:36;;;;;;;9.68;3.35;;;4.20;99.90;;;;;;4973857;28;20052;-76
2023/03/03 06:47:01;;;;;;;8.30;3.60;;;4.30;99.90;;;;;;4974700;28;20066;-76
2023/03/03 06:49:27;;;;;;;10.68;4.25;;;4.10;99.90;;;;;;4973948;28;20027;-77
2023/03/03 06:51:53;;;;;;;6.63;3.58;;;3.90;99.90;;;;;;4976507;28;20031;-76
2023/03/03 06:54:22;;;;;;;7.40;3.25;;;3.80;99.90;;;;;;4972499;28;20027;-76
2023/03/03 06:56:51;;;;;;;8.40;3.30;;;3.90;99.90;;;;;;4964805;28;20082;-76
2023/03/03 06:59:19;;;;;;;10.95;2.92;;;4.00;99.90;;;;;;4967730;28;20058;-76
2023/03/03 07:01:47;;;;;;;8.25;3.72;;;4.10;99.90;;;;;;4975405;28;20088;-76
2023/03/03 07:04:25;;;;;;;6.57;3.40;;;4.30;99.90;;;;;;4981022;28;20044;-77
2023/03/03 07:06:50;;;;;;;8.05;3.83;;;4.30;99.90;;;;;;4969990;28;20469;-76
2023/03/03 07:09:34;;;;;;;7.18;3.28;;;4.30;99.90;;;;;;4977435;28;20033;-75
2023/03/03 07:12:01;;;;;;;7.47;3.40;;;4.40;99.90;;;;;;4964963;28;20050;-77
2023/03/03 07:14:28;;;;;;;7.85;3.25;;;4.40;99.90;;;;;;4962144;28;20093;-76
2023/03/03 07:17:00;;;;;;;9.50;3.47;;;4.50;99.90;;;;;;4971174;28;20419;-76
2023/03/03 07:19:35;;;;;;;7.05;2.75;;;4.60;99.90;;;;;;4966286;28;20038;-78
2023/03/03 07:22:18;;;;;;;9.50;5.05;;;4.60;99.90;;;;;;4966889;28;20117;-77
2023/03/03 07:24:50;;;;;;;13.60;4.50;;;4.30;99.90;;;;;;4969649;28;20041;-77
2023/03/03 07:27:18;;;;;;;10.60;4.10;;;4.40;99.90;;;;;;4969528;28;20034;-78
2023/03/03 07:29:48;;;;;;;7.93;4.03;;;4.30;99.90;;;;;;4968654;28;20034;-78
2023/03/03 07:32:38;;;;;;;7.53;4.47;;;4.30;99.90;;;;;;4968302;28;20043;-77
2023/03/03 07:35:47;;;;;;;12.80;5.35;;;4.30;99.90;;;;;;4964715;28;20211;-76
2023/03/03 07:38:36;;;;;;;10.23;3.63;;;4.00;99.90;;;;;;4971952;28;20376;-76
2023/03/03 07:41:11;;;;;;;10.80;3.85;;;4.10;99.90;;;;;;4969888;28;20044;-76
2023/03/03 07:43:42;;;;;;;9.60;3.78;;;4.30;99.90;;;;;;4969881;28;20077;-75
2023/03/03 07:46:26;;;;;;;11.05;3.60;;;4.00;99.90;;;;;;4969166;28;20034;-77
2023/03/03 07:48:54;;;;;;;7.45;3.47;;;4.20;99.90;;;;;;4966324;28;20031;-77
2023/03/03 07:51:40;;;;;;;5.40;2.63;;;4.30;99.90;;;;;;4972991;28;20088;-77
2023/03/03 07:54:34;;;;;;;9.38;3.10;;;4.30;99.90;;;;;;4970560;28;20041;-78
2023/03/03 07:57:18;;;;;;;7.57;4.25;;;4.50;99.90;;;;;;4978156;28;20380;-77
2023/03/03 07:59:53;;;;;;;11.18;5.38;;;4.50;99.90;;;;;;4969989;28;20118;-78
2023/03/03 08:02:57;;;;;;;12.40;3.80;;;4.40;99.90;;;;;;4969059;28;20113;-76
2023/03/03 08:05:45;;;;;;;9.27;4.60;;;4.30;99.90;;;;;;4980540;28;20561;-76
2023/03/03 08:08:35;;;;;;;13.10;5.90;;;4.40;99.90;;;;;;4977162;28;20033;-75
2023/03/03 08:11:03;;;;;;;10.23;4.82;;;4.40;99.90;;;;;;4975467;28;20042;-76
2023/03/03 08:13:39;;;;;;;13.50;5.25;;;4.40;99.90;;;;;;4979464;28;20038;-75
2023/03/03 08:16:10;;;;;;;11.88;4.18;;;4.50;99.90;;;;;;4968143;28;20100;-78
2023/03/03 08:18:41;;;;;;;7.47;3.72;;;4.50;99.90;;;;;;4964380;28;20042;-76
2023/03/03 08:21:16;;;;;;;8.02;3.72;;;4.70;99.90;;;;;;4975173;28;20027;-75
2023/03/03 08:23:43;;;;;;;6.50;3.30;;;4.80;99.90;;;;;;4972019;28;20050;-76
2023/03/03 08:26:11;;;;;;;9.48;3.80;;;4.90;99.90;;;;;;4966323;28;20042;-76
2023/03/03 08:28:37;;;;;;;7.57;3.67;;;5.00;99.90;;;;;;4969311;28;20031;-76
2023/03/03 08:31:03;;;;;;;9.23;3.92;;;5.20;99.90;;;;;;4966507;28;20454;-76
2023/03/03 08:33:29;;;;;;;9.23;4.97;;;5.30;99.90;;;;;;4975868;28;20175;-76
2023/03/03 08:35:54;;;;;;;10.40;4.22;;;5.40;99.90;;;;;;4967291;28;20417;-76
2023/03/03 08:38:21;;;;;;;6.65;3.80;;;5.40;99.90;;;;;;4980232;28;20491;-76
2023/03/03 08:40:47;;;;;;;16.98;4.28;;;5.60;99.90;;;;;;4974195;28;20122;-76
2023/03/03 08:43:16;;;;;;;8.88;3.40;;;5.80;99.90;;;;;;4978174;28;20096;-80
2023/03/03 08:45:44;;;;;;;18.38;5.47;;;5.90;99.90;;;;;;4980821;28;20042;-76
2023/03/03 08:48:10;;;;;;;23.25;4.65;;;6.10;99.90;;;;;;4978711;28;20045;-76
2023/03/03 08:50:36;;;;;;;9.80;4.60;;;6.20;99.90;;;;;;4984458;28;20038;-77
2023/03/03 08:53:01;;;;;;;12.75;6.28;;;6.20;99.90;;;;;;4972312;28;20039;-76
2023/03/03 08:55:27;;;;;;;11.38;4.47;;;6.30;99.90;;;;;;4971515;28;20038;-76
2023/03/03 08:57:53;;;;;;;9.27;4.80;;;6.40;99.90;;;;;;4975796;28;20046;-76
2023/03/03 09:00:19;;;;;;;7.07;4.47;;;6.50;99.90;;;;;;4980423;28;20030;-79
2023/03/03 09:02:45;;;;;;;9.45;4.40;;;6.60;99.90;;;;;;4974550;28;20034;-79
2023/03/03 09:05:11;;;;;;;7.50;3.88;;;6.80;99.90;;;;;;4965513;28;20137;-76
2023/03/03 09:07:38;;;;;;;7.93;3.72;;;6.90;99.90;;;;;;4985389;28;20089;-76
2023/03/03 09:10:04;;;;;;;9.63;4.63;;;7.00;99.90;;;;;;4981534;28;20066;-76
2023/03/03 09:12:35;;;;;;;11.30;4.25;;;7.10;99.90;;;;;;4972250;28;20027;-77
2023/03/03 09:15:19;;;;;;;8.80;4.10;;;7.20;99.90;;;;;;4971273;28;20039;-76
2023/03/03 09:17:45;;;;;;;8.47;4.27;;;7.20;99.90;;;;;;4969978;28;20520;-76
2023/03/03 09:20:34;;;;;;;8.52;3.25;;;7.40;99.90;;;;;;4968057;28;20263;-75
2023/03/03 09:23:34;;;;;;;7.00;2.92;;;7.70;99.90;;;;;;4967636;28;20682;-75
2023/03/03 09:26:30;;;;;;;9.00;3.70;;;7.60;99.90;;;;;;4971933;28;20031;-75
2023/03/03 09:29:17;;;;;;;8.85;4.43;;;7.50;99.90;;;;;;4967983;28;20042;-76
2023/03/03 09:31:46;;;;;;;7.38;2.95;;;7.70;99.90;;;;;;4966495;28;20027;-75
2023/03/03 09:34:20;;;;;;;8.45;3.40;;;7.80;99.90;;;;;;4977372;28;20042;-76
2023/03/03 09:36:46;;;;;;;8.13;3.13;;;7.80;99.90;;;;;;4970248;28;20105;-76
2023/03/03 09:39:24;;;;;;;10.70;3.63;;;7.80;99.90;;;;;;4975180;28;20786;-75
2023/03/03 09:42:07;;;;;;;7.68;3.28;;;7.90;99.90;;;;;;4973680;28;20030;-76
2023/03/03 09:44:52;;;;;;;9.00;3.50;;;8.00;99.90;;;;;;4974802;28;20030;-76
2023/03/03 09:47:42;;;;;;;10.95;3.17;;;8.10;99.90;;;;;;4974451;28;20037;-75
2023/03/03 09:50:44;;;;;;;8.30;4.18;;;8.40;99.90;;;;;;4974072;28;20026;-75
2023/03/03 09:53:42;;;;;;;7.20;4.18;;;8.40;99.90;;;;;;4972192;28;20114;-80
2023/03/03 09:56:48;;;;;;;7.97;4.00;;;8.50;99.90;;;;;;4961385;28;20526;-75
2023/03/03 09:59:19;;;;;;;9.80;4.28;;;8.40;99.90;;;;;;4956490;28;20420;-75
2023/03/03 10:01:59;;;;;;;9.43;4.13;;;8.50;99.90;;;;;;4974634;28;20770;-76
2023/03/03 10:04:37;;;;;;;9.48;3.70;;;8.70;99.90;;;;;;4966512;28;20651;-80
2023/03/03 10:07:22;;;;;;;11.30;3.88;;;8.70;99.90;;;;;;4984042;28;20030;-75
2023/03/03 10:09:59;;;;;;;9.13;3.28;;;8.60;99.80;;;;;;4974091;28;20445;-76
2023/03/03 10:12:42;;;;;;;11.52;3.97;;;8.50;99.30;;;;;;4964181;28;20037;-77
2023/03/03 10:15:34;;;;;;;6.70;3.50;;;8.70;99.90;;;;;;4963922;28;20046;-75
2023/03/03 10:18:12;;;;;;;8.45;3.35;;;8.80;99.60;;;;;;4955978;28;20047;-75
2023/03/03 10:21:01;;;;;;;7.90;3.65;;;8.80;99.60;;;;;;4966839;28;20038;-75
2023/03/03 10:23:41;;;;;;;6.07;2.70;;;8.90;98.90;;;;;;4980602;28;20033;-75
2023/03/03 10:26:07;;;;;;;8.13;3.47;;;8.80;99.40;;;;;;4979656;28;20058;-75
2023/03/03 10:28:54;;;;;;;5.47;2.88;;;8.70;98.90;;;;;;4967095;28;20478;-75
2023/03/03 10:31:30;;;;;;;7.38;3.22;;;8.70;98.40;;;;;;4976138;28;20031;-75
2023/03/03 10:34:08;;;;;;;8.55;3.58;;;8.80;99.30;;;;;;4977211;28;20101;-75
2023/03/03 10:36:58;;;;;;;9.80;3.75;;;8.80;98.80;;;;;;4973549;28;20034;-75
2023/03/03 10:39:42;;;;;;;7.15;3.42;;;9.00;98.90;;;;;;4970022;28;20558;-75
2023/03/03 10:42:39;;;;;;;5.75;3.45;;;8.80;98.20;;;;;;4967771;28;20037;-75
2023/03/03 10:45:11;;;;;;;8.93;3.10;;;9.20;99.30;;;;;;4966059;28;20158;-75
2023/03/03 10:48:03;;;;;;;8.02;2.97;;;9.50;98.30;;;;;;4977015;28;20096;-77
2023/03/03 10:50:54;;;;;;;6.63;3.22;;;9.40;98.10;;;;;;4976319;28;20046;-75
2023/03/03 10:53:39;;;;;;;8.13;3.45;;;9.50;98.20;;;;;;4971813;28;20034;-76
2023/03/03 10:56:32;;;;;;;7.68;3.90;;;9.60;98.10;;;;;;4973077;28;20074;-75
2023/03/03 10:59:25;;;;;;;10.32;3.40;;;9.90;98.00;;;;;;4968448;28;20039;-78
2023/03/03 11:01:57;;;;;;;7.82;4.15;;;10.10;97.80;;;;;;4979137;28;20381;-75
2023/03/03 11:05:01;;;;;;;6.40;3.10;;;10.00;97.40;;;;;;4972571;28;20121;-75
2023/03/03 11:07:38;;;;;;;6.65;3.72;;;10.00;97.20;;;;;;4978649;28;20492;-75
2023/03/03 11:10:35;;;;;;;6.93;3.22;;;10.00;97.50;;;;;;4970410;28;20142;-76
2023/03/03 11:13:23;;;;;;;6.30;2.70;;;10.00;96.80;;;;;;4977315;28;20038;-76
2023/03/03 11:16:21;;;;;;;8.77;3.88;;;9.90;97.10;;;;;;4975730;28;20046;-75
2023/03/03 11:19:02;;;;;;;7.93;2.90;;;10.10;97.60;;;;;;4980112;28;20507;-75
2023/03/03 11:21:50;;;;;;;10.13;3.85;;;10.10;97.00;;;;;;4973750;28;20461;-76
2023/03/03 11:24:30;;;;;;;6.82;3.15;;;10.10;97.10;;;;;;4975262;28;20030;-75
2023/03/03 11:27:23;;;;;;;7.03;3.25;;;10.30;97.80;;;;;;4976658;28;20137;-75
2023/03/03 11:30:17;;;;;;;7.55;3.22;;;10.30;97.70;;;;;;4974941;28;20112;-77
2023/03/03 11:33:00;;;;;;;16.90;3.67;;;10.30;97.10;;;;;;4972883;28;20089;-75
2023/03/03 11:35:42;;;;;;;11.93;3.90;;;10.40;97.10;;;;;;4968347;28;20034;-75
2023/03/03 11:38:26;;;;;;;7.30;3.28;;;10.40;96.50;;;;;;4971741;28;20405;-75
2023/03/03 11:41:03;;;;;;;9.57;3.70;;;10.40;96.70;;;;;;4986037;28;20116;-75
2023/03/03 11:43:35;;;;;;;8.73;3.33;;;10.40;96.40;;;;;;4973895;28;20031;-75
2023/03/03 11:46:08;;;;;;;9.93;4.28;;;10.40;96.50;;;;;;4973915;28;20034;-76
2023/03/03 11:48:42;;;;;;;11.65;4.35;;;10.60;96.70;;;;;;4979437;28;20034;-75
2023/03/03 11:51:26;;;;;;;11.43;3.30;;;10.60;96.60;;;;;;4981685;28;21442;-76
2023/03/03 11:54:03;;;;;;;;;;;10.70;96.10;;;;;;4973949;28;20125;-75
2023/03/03 11:56:42;;;;;;;6.03;2.95;;;10.70;96.40;;;;;;4976618;28;19910;-75
2023/03/03 11:59:32;;;;;;;8.80;3.70;;;11.00;96.20;;;;;;4974313;28;20058;-77
2023/03/03 12:02:25;;;;;;;7.60;3.60;;;11.30;96.20;;;;;;4975097;28;20109;-76
2023/03/03 12:05:38;;;;;;;6.72;3.30;;;11.70;95.90;;;;;;4975648;28;20046;-75
2023/03/03 12:08:38;;;;;;;5.57;3.10;;;11.80;96.70;;;;;;4950042;28;20038;-76
2023/03/03 12:11:27;;;;;;;6.80;3.17;;;11.90;96.10;;;;;;4971844;28;20089;-75
2023/03/03 12:14:06;;;;;;;12.27;4.03;;;11.90;95.10;;;;;;4967450;28;20761;-76
2023/03/03 12:16:38;;;;;;;9.05;3.42;;;11.90;95.30;;;;;;4975315;28;20034;-76
2023/03/03 12:19:37;;;;;;;7.10;3.50;;;12.00;95.00;;;;;;4975075;28;20053;-77
2023/03/03 12:22:12;;;;;;;5.00;3.00;;;12.00;95.40;;;;;;4965232;28;20516;-76
2023/03/03 12:24:41;;;;;;;10.45;2.83;;;12.00;95.30;;;;;;4965267;28;20453;-81
2023/03/03 12:27:37;;;;;;;7.15;2.88;;;11.90;94.90;;;;;;4974572;28;20034;-76
2023/03/03 12:30:42;;;;;;;6.90;3.03;;;11.90;94.70;;;;;;4977972;28;20049;-76
2023/03/03 12:33:45;;;;;;;8.27;2.75;;;11.80;94.70;;;;;;4971306;28;20038;-76
2023/03/03 12:36:38;;;;;;;5.55;2.75;;;11.80;94.30;;;;;;4970800;28;20049;-76
2023/03/03 12:39:04;;;;;;;7.75;2.45;;;11.80;94.10;;;;;;4976902;28;20038;-76
2023/03/03 12:41:50;;;;;;;9.60;2.72;;;11.90;94.10;;;;;;4969645;28;20807;-75
2023/03/03 12:44:28;;;;;;;5.88;2.42;;;11.90;93.90;;;;;;4978288;28;20791;-77
2023/03/03 12:47:19;;;;;;;6.30;2.53;;;12.00;93.70;;;;;;4964441;28;20030;-76
2023/03/03 12:49:51;;;;;;;7.32;2.35;;;12.20;94.10;;;;;;4961435;28;20058;-76
2023/03/03 12:53:11;;;;;;;4.97;2.40;;;12.30;93.80;;;;;;4973315;28;20095;-75
2023/03/03 12:56:05;;;;;;;6.25;2.53;;;12.10;93.70;;;;;;4930941;29;20043;-76
2023/03/03 12:58:31;;;;;;;5.28;2.15;;;12.30;94.50;;;;;;4978677;28;20053;-78
2023/03/03 13:01:09;;;;;;;4.85;2.25;;;12.40;93.80;;;;;;4971600;28;20031;-75
2023/03/03 13:03:48;;;;;;;6.53;2.85;;;12.40;93.70;;;;;;4964358;28;20968;-76
2023/03/03 13:06:26;;;;;;;11.20;7.32;;;12.60;94.20;;;;;;4967254;28;20062;-76
2023/03/03 13:09:29;;;;;;;16.58;10.05;;;12.60;93.10;;;;;;4968710;28;20503;-76
2023/03/03 13:12:27;;;;;;;12.27;7.07;;;12.60;93.00;;;;;;4966206;28;20043;-74
2023/03/03 13:15:02;;;;;;;14.27;7.55;;;12.60;93.30;;;;;;4966690;28;20133;-74
2023/03/03 13:17:34;;;;;;;10.50;5.63;;;12.60;93.00;;;;;;4972274;28;20034;-74
2023/03/03 13:20:24;;;;;;;8.80;4.78;;;12.60;93.20;;;;;;4965853;28;20053;-75
2023/03/03 13:23:23;;;;;;;12.70;5.80;;;12.60;93.20;;;;;;4963581;28;20114;-75
2023/03/03 13:26:06;;;;;;;6.65;2.80;;;12.60;93.60;;;;;;4977126;28;20089;-75
2023/03/03 13:28:53;;;;;;;7.95;2.13;;;12.60;94.00;;;;;;4978765;28;20436;-74
2023/03/03 13:31:22;;;;;;;7.85;2.58;;;12.70;94.10;;;;;;4971237;28;20074;-75